Time;durP1;ratioP1;P1;durP2;ratioP2;P2;SDS_P1;SDS_P2;PMS_P1;PMS_P2;Temp;Humidity;BMP_temperature;BMP_pressure;BME280_temperature;BME280_humidity;BME280_pressure;Samples;Min_cycle;Max_cycle;Signal;HPM_P1;HPM_P2
2022/10/26 00:00:09;;;;;;;11.70;4.53;;;12.40;80.40;;;11.07;100.00;96145.94;4773019;29;20323;-64
2022/10/26 00:02:35;;;;;;;6.38;3.10;;;12.50;80.50;;;11.06;100.00;96152.19;4767503;29;20387;-64
2022/10/26 00:05:01;;;;;;;5.82;3.60;;;12.50;80.70;;;11.05;100.00;96143.50;4770221;29;20335;-64
2022/10/26 00:07:29;;;;;;;5.85;3.22;;;12.50;81.00;;;11.07;100.00;96150.38;4757041;29;20333;-65
2022/10/26 00:09:55;;;;;;;5.97;3.28;;;12.50;81.10;;;11.09;100.00;96148.38;4765312;29;20434;-64
2022/10/26 00:12:21;;;;;;;7.13;3.38;;;12.60;81.30;;;11.10;100.00;96147.41;4762649;29;20366;-64
2022/10/26 00:14:47;;;;;;;6.53;3.38;;;12.60;81.20;;;11.13;100.00;96147.00;4759396;29;20373;-65
2022/10/26 00:17:13;;;;;;;8.90;3.30;;;12.60;81.20;;;11.14;100.00;96146.00;4751305;29;20323;-64
2022/10/26 00:19:40;;;;;;;4.93;3.40;;;12.60;81.40;;;11.17;100.00;96151.69;4738313;29;20415;-63
2022/10/26 00:22:06;;;;;;;40.20;28.45;;;12.60;81.40;;;11.20;100.00;96153.13;4751417;29;20335;-62
2022/10/26 00:24:32;;;;;;;31.98;22.40;;;12.70;81.50;;;11.23;100.00;96150.91;4767163;29;20220;-63
2022/10/26 00:26:58;;;;;;;21.83;16.70;;;12.70;81.50;;;11.26;100.00;96150.53;4754071;29;20457;-63
2022/10/26 00:29:25;;;;;;;7.82;5.28;;;12.70;81.50;;;11.30;100.00;96140.44;4776886;29;20354;-63
2022/10/26 00:31:51;;;;;;;6.60;3.70;;;12.80;81.30;;;11.31;100.00;96132.34;4755547;29;20401;-63
2022/10/26 00:34:17;;;;;;;6.43;2.95;;;12.80;81.30;;;11.33;100.00;96129.53;4755544;29;20421;-63
2022/10/26 00:36:43;;;;;;;5.82;3.20;;;12.80;81.40;;;11.35;100.00;96132.78;4766138;29;20591;-63
2022/10/26 00:39:10;;;;;;;5.90;2.75;;;12.80;81.30;;;11.40;100.00;96138.28;4756658;29;20504;-63
2022/10/26 00:41:36;;;;;;;4.85;3.03;;;12.90;81.20;;;11.43;100.00;96132.63;4749038;29;20259;-63
2022/10/26 00:44:46;;;;;;;5.30;2.50;;;13.00;81.10;;;11.47;100.00;96141.75;4778253;29;20555;-63
2022/10/26 00:47:42;;;;;;;11.38;3.05;;;13.00;81.20;;;11.48;100.00;96132.84;4774702;29;20476;-63
2022/10/26 00:50:32;;;;;;;5.63;2.75;;;13.00;81.40;;;11.49;100.00;96123.13;4759417;29;20366;-64
2022/10/26 00:52:58;;;;;;;6.28;2.70;;;13.00;81.40;;;11.49;100.00;96116.03;4746185;29;20397;-64
2022/10/26 00:55:27;;;;;;;5.45;2.72;;;13.00;81.30;;;11.50;100.00;96106.31;4734037;29;21011;-63
2022/10/26 00:57:54;;;;;;;7.07;2.90;;;13.00;81.10;;;11.47;100.00;96099.63;4746674;29;20251;-64
2022/10/26 01:00:20;;;;;;;4.03;2.80;;;12.90;81.10;;;11.47;100.00;96104.88;4753575;29;20573;-64
2022/10/26 01:02:47;;;;;;;4.30;2.47;;;12.90;81.30;;;11.46;100.00;96103.25;4780123;29;20833;-64
2022/10/26 01:05:14;;;;;;;6.03;3.45;;;12.90;81.20;;;11.47;100.00;96110.16;4748231;29;20397;-63
2022/10/26 01:07:41;;;;;;;5.63;2.63;;;12.90;81.30;;;11.48;100.00;96098.59;4734794;29;20596;-64
2022/10/26 01:10:08;;;;;;;3.65;2.30;;;12.90;81.30;;;11.51;100.00;96100.84;4772784;29;20851;-63
2022/10/26 01:12:34;;;;;;;5.43;2.72;;;12.90;81.30;;;11.52;100.00;96118.28;4759051;29;20285;-63
2022/10/26 01:15:00;;;;;;;4.80;2.55;;;12.90;81.20;;;11.56;100.00;96126.63;4750640;29;20373;-63
2022/10/26 01:17:55;;;;;;;5.78;3.20;;;13.00;81.30;;;11.58;100.00;96128.06;4758080;29;20373;-63
2022/10/26 01:20:54;;;;;;;6.35;3.08;;;13.10;81.10;;;11.57;100.00;96131.72;4741127;29;20540;-64
2022/10/26 01:24:07;;;;;;;5.00;2.67;;;13.00;81.20;;;11.58;100.00;96133.34;4786089;29;20515;-64
2022/10/26 01:27:19;;;;;;;4.20;2.70;;;13.10;81.20;;;11.60;100.00;96126.06;4783412;29;20600;-64
2022/10/26 01:30:16;;;;;;;4.68;2.53;;;13.10;81.50;;;11.59;100.00;96121.78;4776898;29;20353;-63
2022/10/26 01:32:56;;;;;;;4.45;2.65;;;13.10;81.30;;;11.59;100.00;96128.88;4795436;29;20361;-62
2022/10/26 01:35:51;;;;;;;5.15;3.20;;;13.10;81.20;;;11.59;100.00;96140.22;4765723;29;20500;-66
2022/10/26 01:38:21;;;;;;;8.35;3.17;;;13.10;81.00;;;11.60;100.00;96139.22;4776697;29;20281;-63
2022/10/26 01:41:12;;;;;;;6.82;2.97;;;13.10;81.20;;;11.60;100.00;96149.75;4768171;29;20314;-63
2022/10/26 01:43:42;;;;;;;6.80;3.50;;;13.10;81.10;;;11.58;100.00;96130.69;4768935;29;20362;-63
2022/10/26 01:46:08;;;;;;;5.78;3.28;;;13.00;81.00;;;11.58;100.00;96133.34;4750175;29;20421;-62
2022/10/26 01:48:34;;;;;;;4.07;2.95;;;13.10;80.80;;;11.56;100.00;96130.09;4769114;29;20469;-62
2022/10/26 01:51:00;;;;;;;5.72;3.40;;;13.00;80.70;;;11.55;100.00;96132.91;4785933;29;20358;-62
2022/10/26 01:53:27;;;;;;;6.35;3.65;;;13.00;80.50;;;11.47;100.00;96120.69;4765592;29;20370;-63
2022/10/26 01:55:54;;;;;;;5.95;3.25;;;12.90;81.00;;;11.45;100.00;96117.44;4768641;29;20608;-63
2022/10/26 01:58:47;;;;;;;5.85;3.17;;;12.90;80.90;;;11.44;100.00;96121.09;4752499;29;21014;-63
2022/10/26 02:01:32;;;;;;;5.90;3.28;;;12.90;80.90;;;11.46;100.00;96124.34;4774220;29;20366;-63
2022/10/26 02:04:13;;;;;;;5.05;3.22;;;12.90;80.90;;;11.47;100.00;96109.34;4767362;29;20433;-63
2022/10/26 02:07:07;;;;;;;5.35;3.30;;;12.90;80.90;;;11.46;100.00;96137.50;4779974;29;20581;-63
2022/10/26 02:10:09;;;;;;;6.05;3.17;;;12.90;80.90;;;11.42;100.00;96148.63;4790120;29;20716;-63
2022/10/26 02:12:54;;;;;;;7.05;3.60;;;12.80;81.20;;;11.36;100.00;96139.69;4797835;29;20375;-63
2022/10/26 02:15:26;;;;;;;6.30;2.83;;;12.70;81.40;;;11.29;100.00;96133.53;4748822;29;20040;-63
2022/10/26 02:18:07;;;;;;;4.13;2.90;;;12.60;81.70;;;11.30;100.00;96128.06;4749974;29;20379;-62
2022/10/26 02:20:40;;;;;;;6.30;2.97;;;12.70;81.60;;;11.28;100.00;96132.72;4785075;29;20444;-62
2022/10/26 02:23:06;;;;;;;9.23;3.33;;;12.70;81.70;;;11.28;100.00;96129.28;4752520;29;20580;-63
2022/10/26 02:25:35;;;;;;;7.30;3.50;;;12.70;81.70;;;11.28;100.00;96132.72;4755402;29;20393;-63
2022/10/26 02:28:09;;;;;;;5.28;3.08;;;12.70;81.80;;;11.29;100.00;96136.16;4757253;29;20766;-63
2022/10/26 02:30:35;;;;;;;5.00;2.83;;;12.70;81.80;;;11.30;100.00;96140.44;4752323;29;20896;-63
2022/10/26 02:33:01;;;;;;;5.88;3.05;;;12.80;81.80;;;11.30;100.00;96130.72;4759875;29;20388;-63
2022/10/26 02:35:30;;;;;;;6.05;2.88;;;12.80;81.60;;;11.30;100.00;96120.19;4746582;29;20972;-64
2022/10/26 02:38:01;;;;;;;6.53;3.10;;;12.80;81.60;;;11.29;100.00;96123.00;4743842;29;20524;-63
2022/10/26 02:40:28;;;;;;;5.65;2.97;;;12.70;81.60;;;11.29;100.00;96123.00;4741377;29;20370;-63
2022/10/26 02:42:56;;;;;;;6.07;2.75;;;12.70;81.70;;;11.26;100.00;96118.13;4748347;29;20323;-64
2022/10/26 02:45:29;;;;;;;6.15;3.20;;;12.70;81.90;;;11.27;100.00;96138.19;4744261;29;20328;-63
2022/10/26 02:47:55;;;;;;;6.47;3.25;;;12.70;81.90;;;11.25;100.00;96127.03;4750530;29;20921;-63
2022/10/26 02:50:27;;;;;;;3.97;3.05;;;12.60;82.30;;;11.26;100.00;96131.28;4740920;29;20392;-63
2022/10/26 02:53:58;;;;;;;7.07;4.60;;;12.70;82.10;;;11.27;100.00;96132.91;4737479;29;20424;-63
2022/10/26 02:56:33;;;;;;;15.65;10.85;;;12.70;82.20;;;11.27;100.00;96125.00;4761693;29;20252;-63
2022/10/26 02:59:01;;;;;;;21.27;16.52;;;12.70;82.30;;;11.29;100.00;96117.72;4750416;29;20398;-62
2022/10/26 03:01:27;;;;;;;8.48;3.92;;;12.80;82.40;;;11.31;100.00;96113.09;4738946;29;20402;-63
2022/10/26 03:03:57;;;;;;;10.10;3.38;;;12.80;82.20;;;11.31;100.00;96110.44;4752234;29;20366;-63
2022/10/26 03:06:23;;;;;;;6.55;3.13;;;12.80;82.00;;;11.28;100.00;96116.09;4754442;29;20368;-64
2022/10/26 03:08:49;;;;;;;6.72;3.17;;;12.70;82.20;;;11.27;100.00;96110.03;4764692;29;20446;-65
2022/10/26 03:11:16;;;;;;;5.13;2.92;;;12.70;82.10;;;11.30;100.00;96108.81;4765876;29;20698;-64
2022/10/26 03:13:42;;;;;;;5.70;2.60;;;12.80;82.10;;;11.31;100.00;96099.91;4747512;29;20208;-63
2022/10/26 03:16:08;;;;;;;4.18;2.75;;;12.70;82.20;;;11.33;100.00;96103.19;4781025;29;20288;-63
2022/10/26 03:18:35;;;;;;;9.73;6.30;;;12.80;82.20;;;11.35;100.00;96117.00;4762347;29;20331;-62
2022/10/26 03:21:01;;;;;;;22.02;17.42;;;12.90;82.40;;;11.34;100.00;96120.63;4750385;29;20378;-61
2022/10/26 03:23:27;;;;;;;11.80;9.13;;;12.80;82.50;;;11.35;100.00;96102.00;4762062;29;20375;-63
2022/10/26 03:25:59;;;;;;;9.27;6.97;;;12.80;82.40;;;11.36;100.00;96108.06;4746719;29;20362;-63
2022/10/26 03:28:26;;;;;;;9.00;4.72;;;12.90;82.50;;;11.38;100.00;96103.44;4767279;29;20381;-65
2022/10/26 03:30:52;;;;;;;7.70;3.97;;;12.90;82.50;;;11.39;100.00;96102.41;4781454;29;20037;-66
2022/10/26 03:33:18;;;;;;;11.00;8.02;;;12.90;82.30;;;11.41;100.00;96103.03;4773796;29;20220;-66
2022/10/26 03:35:44;;;;;;;6.95;5.05;;;12.90;82.50;;;11.41;100.00;96095.13;4792812;29;20252;-63
2022/10/26 03:38:10;;;;;;;4.45;3.33;;;13.00;82.30;;;11.41;100.00;96095.13;4833925;29;20174;-63
2022/10/26 03:40:36;;;;;;;5.93;2.58;;;12.90;82.30;;;11.42;100.00;96095.94;4820543;29;20112;-64
2022/10/26 03:43:02;;;;;;;4.57;2.67;;;12.90;82.40;;;11.41;100.00;96094.31;4820392;29;20041;-63
2022/10/26 03:45:30;;;;;;;4.25;2.60;;;12.90;82.40;;;11.43;100.00;96098.38;4786422;29;20349;-64
2022/10/26 03:47:57;;;;;;;5.00;2.92;;;12.90;82.30;;;11.43;100.00;96100.22;4782786;29;20205;-66
2022/10/26 03:50:23;;;;;;;6.75;2.75;;;12.90;82.30;;;11.44;100.00;96094.75;4748303;29;20557;-66
2022/10/26 03:52:49;;;;;;;6.30;2.70;;;12.90;82.30;;;11.43;100.00;96090.50;4766044;29;20915;-64
2022/10/26 03:55:15;;;;;;;5.65;2.70;;;12.90;82.20;;;11.44;100.00;96091.28;4762411;29;20489;-64
2022/10/26 03:57:43;;;;;;;6.20;3.13;;;13.00;82.20;;;11.44;100.00;96092.13;4762949;29;20209;-63
2022/10/26 04:00:11;;;;;;;4.00;2.70;;;13.00;82.20;;;11.47;100.00;96093.53;4763181;29;20457;-64
2022/10/26 04:02:37;;;;;;;6.28;3.05;;;13.00;82.10;;;11.47;100.00;96099.63;4754991;29;20353;-63
2022/10/26 04:05:04;;;;;;;5.45;2.88;;;13.00;82.20;;;11.48;100.00;96106.50;4759012;29;20812;-63
2022/10/26 04:07:30;;;;;;;4.18;2.85;;;13.00;82.30;;;11.50;100.00;96120.31;4727731;29;20438;-63
2022/10/26 04:09:56;;;;;;;5.50;3.22;;;13.10;82.20;;;11.51;100.00;96131.66;4755156;29;20365;-64
2022/10/26 04:12:22;;;;;;;6.38;3.63;;;13.00;82.20;;;11.51;100.00;96143.00;4767618;29;20276;-63
2022/10/26 04:14:48;;;;;;;6.25;3.38;;;13.10;82.20;;;11.53;100.00;96137.53;4762342;29;20304;-63
2022/10/26 04:17:14;;;;;;;6.95;3.40;;;13.10;82.20;;;11.52;100.00;96136.72;4736613;29;20437;-64
2022/10/26 04:19:41;;;;;;;7.03;2.95;;;13.10;82.20;;;11.52;100.00;96134.09;4758725;29;20342;-64
2022/10/26 04:22:09;;;;;;;3.63;2.88;;;13.00;82.20;;;11.50;100.00;96133.47;4769141;29;20431;-66
2022/10/26 04:24:35;;;;;;;4.13;2.88;;;13.00;82.10;;;11.49;100.00;96138.94;4748379;29;20361;-65
2022/10/26 04:27:01;;;;;;;4.82;3.00;;;13.00;82.20;;;11.48;100.00;96143.38;4748369;29;20372;-67
2022/10/26 04:29:27;;;;;;;14.73;10.38;;;13.00;82.20;;;11.49;100.00;96141.56;4763641;29;20440;-65
2022/10/26 04:31:54;;;;;;;10.20;8.15;;;13.00;82.50;;;11.50;100.00;96149.28;4748502;29;20510;-65
2022/10/26 04:34:20;;;;;;;15.27;13.23;;;13.00;82.50;;;11.51;100.00;96153.53;4775614;29;20394;-66
2022/10/26 04:36:46;;;;;;;7.10;4.63;;;13.00;82.50;;;11.49;100.00;96150.28;4767305;29;20354;-66
2022/10/26 04:39:13;;;;;;;5.45;2.97;;;13.00;82.40;;;11.49;100.00;96144.19;4772230;29;20413;-66
2022/10/26 04:41:40;;;;;;;4.72;2.80;;;13.00;82.20;;;11.48;100.00;96148.66;4741369;29;20370;-64
2022/10/26 04:44:06;;;;;;;5.57;2.58;;;13.00;82.30;;;11.48;100.00;96147.84;4742695;29;20220;-64
2022/10/26 04:46:32;;;;;;;4.93;2.78;;;13.00;82.40;;;11.47;100.00;96146.22;4758112;29;20460;-66
2022/10/26 04:48:58;;;;;;;6.80;3.00;;;12.90;82.40;;;11.44;100.00;96147.41;4759084;29;20371;-63
2022/10/26 04:51:30;;;;;;;5.13;2.90;;;12.90;82.40;;;11.42;100.00;96149.44;4748194;29;20415;-68
2022/10/26 04:53:57;;;;;;;6.57;2.78;;;12.90;82.30;;;11.41;100.00;96142.53;4764018;29;20308;-67
2022/10/26 04:56:23;;;;;;;4.68;2.92;;;12.90;82.40;;;11.40;100.00;96142.75;4748484;29;20374;-65
2022/10/26 04:58:52;;;;;;;5.35;2.95;;;12.90;82.40;;;11.40;100.00;96146.19;4763738;29;20356;-64
2022/10/26 05:01:18;;;;;;;4.72;2.90;;;12.90;82.30;;;11.41;100.00;96154.91;4764671;29;20674;-68
2022/10/26 05:03:49;;;;;;;5.88;2.72;;;12.90;82.30;;;11.43;100.00;96172.13;4763091;29;20351;-67
2022/10/26 05:06:15;;;;;;;3.50;2.60;;;13.00;82.40;;;11.41;100.00;96194.41;4772916;29;20432;-66
2022/10/26 05:08:41;;;;;;;4.15;2.50;;;12.90;82.50;;;11.40;100.00;96216.47;4757567;29;20048;-65
2022/10/26 05:11:08;;;;;;;4.57;2.72;;;12.80;82.70;;;11.38;100.00;96237.75;4756099;29;20425;-65
2022/10/26 05:13:34;;;;;;;4.28;3.00;;;12.80;83.00;;;11.36;100.00;96247.66;4793759;29;20827;-66
2022/10/26 05:16:00;;;;;;;7.75;3.53;;;12.70;83.30;;;11.34;100.00;96281.28;4757388;29;20434;-67
2022/10/26 05:18:26;;;;;;;6.70;3.05;;;12.70;83.50;;;11.33;100.00;96287.53;4735563;29;20331;-65
2022/10/26 05:20:52;;;;;;;6.68;3.13;;;12.80;83.50;;;11.32;100.00;96270.13;4763943;29;20393;-68
2022/10/26 05:23:18;;;;;;;13.45;3.20;;;12.70;83.40;;;11.32;100.00;96273.56;4769348;29;20758;-68
2022/10/26 05:25:48;;;;;;;6.18;3.35;;;12.80;83.50;;;11.32;100.00;96278.00;4754836;29;20766;-66
2022/10/26 05:28:15;;;;;;;5.63;3.30;;;12.70;83.40;;;11.33;100.00;96258.56;4758721;29;20374;-64
2022/10/26 05:30:42;;;;;;;5.65;3.25;;;12.80;83.30;;;11.35;100.00;96261.81;4788814;29;20372;-66
2022/10/26 05:33:10;;;;;;;5.75;3.55;;;12.90;83.40;;;11.35;100.00;96262.66;4766413;29;20418;-66
2022/10/26 05:35:36;;;;;;;4.00;3.50;;;12.90;83.20;;;11.35;100.00;96269.72;4768745;29;20497;-65
2022/10/26 05:38:32;;;;;;;5.50;3.15;;;12.90;83.30;;;11.36;100.00;96266.09;4756805;29;20347;-66
2022/10/26 05:41:00;;;;;;;6.78;3.13;;;12.80;83.60;;;11.36;100.00;96266.09;4778468;29;20402;-65
2022/10/26 05:43:26;;;;;;;8.52;3.30;;;12.90;83.70;;;11.36;100.00;96266.09;4776910;29;20380;-66
2022/10/26 05:45:53;;;;;;;8.52;3.17;;;12.80;83.80;;;11.37;100.00;96267.72;4794773;29;20369;-66
2022/10/26 05:48:20;;;;;;;7.45;3.30;;;12.90;83.70;;;11.36;100.00;96266.09;4788037;29;20369;-64
2022/10/26 05:50:46;;;;;;;5.50;3.50;;;12.90;83.70;;;11.36;100.00;96268.72;4795475;29;20514;-66
2022/10/26 05:53:12;;;;;;;5.90;2.85;;;12.90;83.60;;;11.36;100.00;96266.09;4810409;29;20368;-65
2022/10/26 05:55:39;;;;;;;5.30;3.00;;;12.90;83.50;;;11.37;100.00;96283.53;4808708;29;20188;-67
2022/10/26 05:58:10;;;;;;;4.82;3.00;;;12.90;83.30;;;11.41;100.00;96290.03;4810924;29;20571;-65
2022/10/26 06:00:36;;;;;;;6.40;3.20;;;13.00;83.30;;;11.43;100.00;96297.75;4795287;29;20208;-64
2022/10/26 06:03:28;;;;;;;6.43;3.03;;;13.00;83.50;;;11.45;100.00;96291.28;4803448;29;20583;-64
2022/10/26 06:05:56;;;;;;;5.00;2.55;;;13.00;83.40;;;11.47;100.00;96294.53;4795375;29;20215;-66
2022/10/26 06:08:25;;;;;;;5.75;3.00;;;13.10;83.60;;;11.46;100.00;96261.31;4794053;29;20309;-66
2022/10/26 06:10:53;;;;;;;6.70;3.17;;;13.00;83.40;;;11.43;100.00;96259.06;4794098;29;20384;-67
2022/10/26 06:13:19;;;;;;;6.35;3.33;;;12.90;83.60;;;11.40;100.00;96264.69;4783388;29;20224;-68
2022/10/26 06:16:00;;;;;;;5.20;3.78;;;12.80;83.80;;;11.42;100.00;96283.75;4787221;29;20364;-67
2022/10/26 06:18:43;;;;;;;5.22;3.08;;;12.90;83.80;;;11.44;100.00;96291.47;4797789;29;20436;-66
2022/10/26 06:21:12;;;;;;;4.30;3.05;;;12.90;83.70;;;11.42;100.00;96291.66;4783635;29;20494;-65
2022/10/26 06:24:39;;;;;;;6.60;3.35;;;12.90;83.80;;;11.45;100.00;96287.84;4828327;29;20551;-66
2022/10/26 06:27:32;;;;;;;6.72;4.03;;;13.00;83.70;;;11.45;100.00;96291.28;4791317;29;20420;-67
2022/10/26 06:30:13;;;;;;;6.90;4.07;;;13.00;83.70;;;11.47;100.00;96297.19;4793938;29;20350;-66
2022/10/26 06:32:43;;;;;;;;;;;13.00;83.50;;;11.50;100.00;96293.34;4786185;29;20576;-67
2022/10/26 06:35:40;;;;;;;6.45;3.60;;;13.00;83.60;;;11.52;100.00;96292.16;4778590;29;20721;-66
2022/10/26 06:38:33;;;;;;;8.98;3.53;;;13.10;83.50;;;11.55;100.00;96270.72;4787319;29;20381;-66
2022/10/26 06:40:59;;;;;;;5.10;3.30;;;13.10;83.40;;;11.58;100.00;96269.53;4819858;29;20448;-68
2022/10/26 06:43:28;;;;;;;4.38;3.17;;;13.20;83.40;;;11.61;100.00;96267.31;4791952;29;20354;-67
2022/10/26 06:46:36;;;;;;;8.20;3.28;;;13.30;83.10;;;11.68;100.00;96261.28;4785030;29;20888;-68
2022/10/26 06:49:16;;;;;;;5.63;3.30;;;13.40;83.00;;;11.77;100.00;96268.00;4808078;29;20353;-65
2022/10/26 06:52:00;;;;;;;6.00;3.55;;;13.50;82.80;;;11.83;100.00;96272.56;4794864;29;20287;-67
2022/10/26 06:54:49;;;;;;;5.03;3.13;;;13.60;82.70;;;11.93;100.00;96267.75;4791085;29;20797;-66
2022/10/26 06:57:16;;;;;;;5.18;2.85;;;13.60;82.20;;;11.97;100.00;96271.63;4787513;29;20223;-66
2022/10/26 06:59:50;;;;;;;5.72;3.38;;;13.70;82.30;;;12.05;100.00;96282.03;4806953;29;20802;-66
2022/10/26 07:02:17;;;;;;;4.18;3.05;;;13.80;82.20;;;12.13;100.00;96284.50;4807105;29;20598;-68
2022/10/26 07:04:43;;;;;;;5.43;3.00;;;13.90;82.00;;;12.20;100.00;96288.00;4758636;29;20363;-67
2022/10/26 07:07:15;;;;;;;5.10;3.00;;;14.10;81.60;;;12.26;100.00;96279.34;4777807;29;20514;-69
2022/10/26 07:09:41;;;;;;;6.10;3.08;;;14.00;81.50;;;12.29;100.00;96295.78;4820954;29;20894;-67
2022/10/26 07:12:08;;;;;;;7.03;2.85;;;14.00;81.60;;;12.33;100.00;96295.19;4806838;29;20342;-67
2022/10/26 07:14:34;;;;;;;6.93;3.35;;;14.10;81.80;;;12.37;100.00;96295.59;4808455;29;20384;-65
2022/10/26 07:17:00;;;;;;;7.32;2.92;;;14.00;81.70;;;12.38;100.00;96297.22;4781140;29;20296;-65
2022/10/26 07:19:26;;;;;;;5.60;3.17;;;14.00;81.60;;;12.41;100.00;96291.56;4785513;29;20445;-65
2022/10/26 07:21:58;;;;;;;5.43;2.78;;;14.10;81.50;;;12.43;100.00;96300.09;4809741;29;20468;-65
2022/10/26 07:24:24;;;;;;;6.47;2.65;;;14.10;81.60;;;12.43;100.00;96308.00;4776315;29;20555;-64
2022/10/26 07:26:52;;;;;;;7.22;2.88;;;14.10;81.70;;;12.45;100.00;96293.63;4789170;29;20323;-66
2022/10/26 07:29:18;;;;;;;7.35;2.65;;;14.10;81.70;;;12.46;100.00;96302.38;4794828;29;20473;-65
2022/10/26 07:31:44;;;;;;;6.00;2.70;;;14.10;81.60;;;12.46;100.00;96300.53;4814998;29;20364;-66
2022/10/26 07:34:10;;;;;;;4.43;2.80;;;14.10;81.80;;;12.49;100.00;96305.41;4769370;29;20808;-64
2022/10/26 07:36:36;;;;;;;6.22;2.60;;;14.10;81.80;;;12.53;100.00;96305.84;4770175;29;20844;-64
2022/10/26 07:39:03;;;;;;;6.65;2.92;;;14.10;81.50;;;12.58;100.00;96298.13;4779904;29;20356;-66
2022/10/26 07:41:29;;;;;;;6.18;2.95;;;14.40;81.20;;;12.68;100.00;96303.06;4789921;29;20762;-66
2022/10/26 07:43:56;;;;;;;4.90;2.50;;;14.50;80.80;;;12.78;100.00;96304.31;4784017;29;20203;-65
2022/10/26 07:46:22;;;;;;;6.22;2.38;;;14.70;80.40;;;12.85;100.00;96305.16;4787525;29;20826;-63
2022/10/26 07:48:48;;;;;;;4.03;2.15;;;14.70;79.60;;;12.93;100.00;96306.81;4762997;29;20776;-65
2022/10/26 07:51:14;;;;;;;5.13;2.30;;;14.80;79.40;;;12.99;100.00;96305.22;4788895;29;20584;-66
2022/10/26 07:53:40;;;;;;;4.85;2.78;;;14.80;79.00;;;13.03;100.00;96306.44;4789458;29;20460;-64
2022/10/26 07:56:07;;;;;;;4.38;2.55;;;14.90;78.80;;;13.10;100.00;96300.13;4804982;29;20349;-63
2022/10/26 07:58:33;;;;;;;5.45;2.55;;;14.90;78.70;;;13.16;100.00;96290.63;4761555;29;20416;-64
2022/10/26 08:01:10;;;;;;;4.47;2.05;;;15.00;78.60;;;13.24;100.00;96285.19;4786321;29;20777;-63
2022/10/26 08:03:36;;;;;;;5.05;2.20;;;15.10;78.60;;;13.34;100.00;96292.69;4820984;29;20790;-64
2022/10/26 08:06:03;;;;;;;5.25;2.50;;;15.30;78.30;;;13.43;100.00;96284.41;4785333;29;20455;-64
2022/10/26 08:08:30;;;;;;;4.82;2.50;;;15.40;78.00;;;13.54;100.00;96282.16;4778811;29;21025;-63
2022/10/26 08:10:57;;;;;;;7.10;2.35;;;15.60;77.60;;;13.67;100.00;96298.03;4819009;29;20404;-66
2022/10/26 08:13:27;;;;;;;7.57;2.33;;;15.90;77.50;;;13.82;100.00;96290.72;4780445;29;20385;-63
2022/10/26 08:15:59;;;;;;;7.45;2.47;;;16.20;76.40;;;14.05;100.00;96295.56;4776456;29;20762;-63
2022/10/26 08:18:26;;;;;;;6.45;2.88;;;16.60;75.80;;;14.24;100.00;96293.91;4782755;29;20503;-63
2022/10/26 08:20:52;;;;;;;5.00;2.60;;;16.80;75.00;;;14.42;100.00;96299.34;4788094;29;20361;-64
2022/10/26 08:23:18;;;;;;;5.05;2.30;;;16.90;74.10;;;14.58;100.00;96296.28;4776029;28;20518;-64
2022/10/26 08:25:44;;;;;;;4.07;2.05;;;17.10;73.60;;;14.75;100.00;96306.41;4790769;29;20293;-64
2022/10/26 08:28:11;;;;;;;8.77;2.63;;;17.20;72.70;;;14.90;100.00;96305.09;4784762;29;20716;-65
2022/10/26 08:30:37;;;;;;;8.55;4.50;;;17.40;72.80;;;15.05;100.00;96307.50;4791328;29;20223;-64
2022/10/26 08:33:05;;;;;;;7.60;4.50;;;17.40;72.70;;;15.18;100.00;96311.94;4812201;29;20339;-66
2022/10/26 08:35:32;;;;;;;8.50;3.10;;;17.50;73.20;;;15.28;100.00;96305.13;4776973;29;20305;-67
2022/10/26 08:37:58;;;;;;;6.97;2.58;;;17.60;71.40;;;15.40;100.00;96304.47;4780187;29;20495;-65
2022/10/26 08:40:35;;;;;;;5.22;2.63;;;17.90;71.10;;;15.57;100.00;96311.66;4787124;29;20424;-62
2022/10/26 08:43:10;;;;;;;7.25;2.67;;;18.40;70.30;;;15.74;100.00;96311.97;4807616;29;20339;-65
2022/10/26 08:45:45;;;;;;;9.02;2.55;;;18.40;69.40;;;15.86;100.00;96310.25;4789373;29;20310;-66
2022/10/26 08:48:16;;;;;;;4.93;3.33;;;18.60;69.50;;;16.00;100.00;96304.81;4814158;29;20312;-65
2022/10/26 08:51:08;;;;;;;12.38;7.90;;;18.50;69.20;;;16.14;100.00;96311.66;4792190;29;20345;-65
2022/10/26 08:53:46;;;;;;;17.40;15.30;;;18.60;68.60;;;16.34;100.00;96311.47;4786628;29;20364;-65
2022/10/26 08:56:20;;;;;;;18.98;13.95;;;19.00;68.30;;;16.56;100.00;96312.66;4781943;29;20353;-64
2022/10/26 08:58:57;;;;;;;12.90;9.65;;;19.90;66.50;;;16.90;100.00;96311.25;4772632;29;20403;-65
2022/10/26 09:01:24;;;;;;;8.13;3.08;;;20.70;63.70;;;17.21;100.00;96322.75;4789754;29;20365;-64
2022/10/26 09:03:50;;;;;;;2.83;1.60;;;21.30;60.20;;;17.49;100.00;96314.97;4785443;29;20496;-64
2022/10/26 09:06:39;;;;;;;8.00;1.77;;;21.20;59.00;;;17.72;99.13;96314.25;4810936;29;20338;-65
2022/10/26 09:09:38;;;;;;;4.13;1.52;;;21.20;59.70;;;17.80;97.83;96316.56;4792387;29;20342;-64
2022/10/26 09:12:23;;;;;;;4.68;1.70;;;20.60;60.50;;;17.79;97.95;96309.63;4786996;29;20520;-63
2022/10/26 09:15:07;;;;;;;6.18;1.65;;;20.10;61.60;;;17.76;100.00;96320.75;4790196;29;20811;-65
2022/10/26 09:18:15;;;;;;;4.53;1.77;;;19.80;62.20;;;17.67;94.39;96320.28;4827402;29;20387;-65
2022/10/26 09:21:29;;;;;;;6.03;1.65;;;19.50;63.10;;;17.59;95.22;96312.56;4810856;29;20207;-63
2022/10/26 09:24:05;;;;;;;4.55;1.73;;;19.40;64.30;;;17.48;98.10;96318.69;4793020;29;20360;-66
2022/10/26 09:26:56;;;;;;;4.47;1.67;;;19.10;64.80;;;17.40;98.00;96326.97;4809844;29;20330;-64
2022/10/26 09:29:26;;;;;;;4.18;1.75;;;19.10;65.50;;;17.31;97.34;96329.13;4790040;29;20368;-66
2022/10/26 09:31:53;;;;;;;4.07;1.63;;;19.10;65.40;;;17.27;98.70;96327.16;4798136;29;20841;-66
2022/10/26 09:34:38;;;;;;;3.42;1.42;;;19.10;65.50;;;17.25;98.25;96330.03;4790865;29;20704;-66
2022/10/26 09:37:39;;;;;;;3.13;1.70;;;19.30;65.20;;;17.25;98.34;96327.38;4790918;29;20722;-65
2022/10/26 09:40:12;;;;;;;3.45;1.20;;;19.40;65.40;;;17.20;99.57;96332.56;4765257;29;20605;-66
2022/10/26 09:42:42;;;;;;;5.60;1.77;;;19.10;66.20;;;17.18;100.00;96333.81;4807308;29;20334;-66
2022/10/26 09:45:18;;;;;;;5.22;1.65;;;19.10;66.50;;;17.15;100.00;96340.38;4781370;28;20361;-63
2022/10/26 09:48:11;;;;;;;2.38;1.40;;;19.00;67.10;;;17.11;100.00;96345.34;4802699;29;20212;-65
2022/10/26 09:50:39;;;;;;;3.67;1.70;;;18.90;67.70;;;17.03;100.00;96348.31;4799224;29;20932;-66
2022/10/26 09:53:05;;;;;;;3.92;1.50;;;18.80;67.80;;;17.01;100.00;96346.91;4773319;29;20039;-64
2022/10/26 09:55:32;;;;;;;3.35;1.60;;;18.80;68.30;;;16.97;100.00;96343.88;4773549;29;20215;-64
2022/10/26 09:58:01;;;;;;;6.05;2.08;;;18.80;68.60;;;16.97;100.00;96353.69;4804006;29;20445;-68
2022/10/26 10:00:27;;;;;;;4.32;2.00;;;18.90;68.30;;;16.95;100.00;96353.91;4791022;29;20491;-67
2022/10/26 10:02:58;;;;;;;5.43;1.90;;;18.90;69.30;;;16.94;100.00;96352.28;4813036;29;20048;-64
2022/10/26 10:05:32;;;;;;;4.43;1.35;;;19.00;69.00;;;17.00;100.00;96353.25;4797695;29;20361;-64
2022/10/26 10:08:20;;;;;;;6.22;1.90;;;19.10;69.20;;;17.07;100.00;96360.13;4797410;29;20227;-66
2022/10/26 10:11:08;;;;;;;4.88;1.50;;;19.30;69.10;;;17.15;100.00;96351.81;4806679;29;20501;-67
2022/10/26 10:13:39;;;;;;;3.10;1.50;;;19.40;68.10;;;17.24;100.00;96359.50;4791137;29;20524;-66
2022/10/26 10:16:09;;;;;;;;;;;19.50;68.10;;;17.32;100.00;96356.53;4783275;29;20496;-65
2022/10/26 10:18:37;;;;;;;5.10;1.42;;;19.60;67.60;;;17.38;100.00;96361.75;4823143;29;19919;-65
2022/10/26 10:21:04;;;;;;;5.63;1.70;;;19.60;66.90;;;17.47;100.00;96359.63;4803974;29;20364;-65
2022/10/26 10:23:36;;;;;;;4.75;1.63;;;19.60;66.40;;;17.59;100.00;96362.28;4794782;28;20396;-67
2022/10/26 10:26:11;;;;;;;3.33;1.40;;;19.80;66.20;;;17.70;100.00;96359.72;4790927;29;20433;-66
2022/10/26 10:28:39;;;;;;;5.28;1.50;;;20.00;65.90;;;17.80;100.00;96363.66;4788665;29;20452;-65
2022/10/26 10:31:21;;;;;;;3.78;1.20;;;20.00;64.00;;;17.87;98.39;96364.38;4773832;29;20469;-65
2022/10/26 10:33:48;;;;;;;5.63;1.80;;;20.00;64.50;;;17.90;99.59;96369.25;4797286;29;20319;-63